| time (UTC) | temp F | wind direction | speed MPH | gust MPH | rain 1hr in | rain 24hr in | rain mn in | humidity % | barometer mb |
| 20260503233005 | 72 | 271 | 9.0 | 10.0 | 0.00 | 0.00 | 0.00 | 44 | 1010.5 |
| 20260503232503 | 73 | 270 | 6.0 | 8.0 | 0.00 | 0.00 | 0.00 | 44 | 1010.7 |
| 20260503232000 | 72 | 263 | 6.0 | 13.0 | 0.00 | 0.00 | 0.00 | 45 | 1010.6 |
| 20260503231458 | 73 | 241 | 5.0 | 8.0 | 0.00 | 0.00 | 0.00 | 45 | 1010.7 |
| 20260503230954 | 72 | 252 | 5.0 | 11.0 | 0.00 | 0.00 | 0.00 | 45 | 1010.9 |
| 20260503230450 | 72 | 298 | 6.0 | 13.0 | 0.00 | 0.00 | 0.00 | 44 | 1010.8 |
| 20260503225948 | 72 | 264 | 8.0 | 13.0 | 0.00 | 0.00 | 0.00 | 44 | 1010.8 |
| 20260503225445 | 72 | 278 | 9.0 | 11.0 | 0.00 | 0.00 | 0.00 | 45 | 1011.2 |
| 20260503224940 | 72 | 252 | 7.0 | 10.0 | 0.00 | 0.00 | 0.00 | 45 | 1011.1 |
| 20260503224437 | 72 | 282 | 5.0 | 8.0 | 0.00 | 0.00 | 0.00 | 44 | 1011.3 |
| 20260503223935 | 72 | 239 | 6.0 | 14.0 | 0.00 | 0.00 | 0.00 | 44 | 1011.5 |
| 20260503223433 | 72 | 239 | 5.0 | 10.0 | 0.00 | 0.00 | 0.00 | 44 | 1011.4 |
| 20260503222928 | 72 | 240 | 5.0 | 11.0 | 0.00 | 0.00 | 0.00 | 44 | 1011.3 |
| 20260503222427 | 72 | 311 | 7.0 | 11.0 | 0.00 | 0.00 | 0.00 | 43 | 1011.5 |
| 20260503221925 | 72 | 303 | 4.0 | 9.0 | 0.00 | 0.00 | 0.00 | 43 | 1011.7 |
| 20260503221423 | 72 | 289 | 7.0 | 11.0 | 0.00 | 0.00 | 0.00 | 44 | 1011.6 |
| 20260503220919 | 72 | 283 | 5.0 | 11.0 | 0.00 | 0.00 | 0.00 | 44 | 1011.8 |
| 20260503220416 | 72 | 286 | 6.0 | 13.0 | 0.00 | 0.00 | 0.00 | 44 | 1011.8 |
| 20260503215913 | 72 | 320 | 3.0 | 10.0 | 0.00 | 0.00 | 0.00 | 42 | 1011.8 |
| 20260503215410 | 72 | 252 | 8.0 | 10.0 | 0.00 | 0.00 | 0.00 | 42 | 1011.9 |
| 20260503214908 | 72 | 271 | 9.0 | 11.0 | 0.00 | 0.00 | 0.00 | 43 | 1012.1 |
| 20260503214405 | 71 | 241 | 5.0 | 11.0 | 0.00 | 0.00 | 0.00 | 45 | 1011.8 |
| 20260503213902 | 72 | 257 | 4.0 | 9.0 | 0.00 | 0.00 | 0.00 | 48 | 1011.7 |
| 20260503213400 | 72 | 233 | 3.0 | 9.0 | 0.00 | 0.00 | 0.00 | 49 | 1011.8 |
| 20260503212856 | 71 | 324 | 6.0 | 10.0 | 0.00 | 0.00 | 0.00 | 50 | 1012.1 |
| 20260503212354 | 70 | 215 | 5.0 | 11.0 | 0.00 | 0.00 | 0.00 | 52 | 1012.1 |
| 20260503211851 | 69 | 300 | 6.0 | 9.0 | 0.00 | 0.00 | 0.00 | 52 | 1012.0 |
| 20260503211348 | 69 | 282 | 7.0 | 10.0 | 0.00 | 0.00 | 0.00 | 52 | 1012.1 |
| 20260503210843 | 69 | 239 | 8.0 | 13.0 | 0.00 | 0.00 | 0.00 | 52 | 1012.2 |
| 20260503210341 | 69 | 253 | 4.0 | 11.0 | 0.00 | 0.00 | 0.00 | 52 | 1012.2 |
| 20260503205835 | 71 | 238 | 5.0 | 10.0 | 0.00 | 0.00 | 0.00 | 51 | 1012.2 |
| 20260503205332 | 71 | 301 | 6.0 | 7.0 | 0.00 | 0.00 | 0.00 | 50 | 1012.2 |
| 20260503204829 | 70 | 309 | 4.0 | 7.0 | 0.00 | 0.00 | 0.00 | 49 | 1012.2 |
| 20260503204326 | 70 | 319 | 6.0 | 11.0 | 0.00 | 0.00 | 0.00 | 51 | 1012.3 |
| 20260503203823 | 71 | 241 | 4.0 | 8.0 | 0.00 | 0.00 | 0.00 | 49 | 1012.6 |
| 20260503203321 | 70 | 263 | 3.0 | 8.0 | 0.00 | 0.00 | 0.00 | 49 | 1012.4 |
| 20260503202817 | 70 | 238 | 6.0 | 11.0 | 0.00 | 0.00 | 0.00 | 51 | 1012.6 |
| 20260503202316 | 71 | 245 | 2.0 | 8.0 | 0.00 | 0.00 | 0.00 | 50 | 1012.6 |
| 20260503201814 | 71 | 262 | 2.0 | 8.0 | 0.00 | 0.00 | 0.00 | 48 | 1012.5 |
| 20260503201310 | 70 | 234 | 6.0 | 8.0 | 0.00 | 0.00 | 0.00 | 51 | 1012.8 |
| 20260503200808 | 71 | 236 | 5.0 | 8.0 | 0.00 | 0.00 | 0.00 | 48 | 1012.8 |
| 20260503200303 | 70 | 326 | 7.0 | 9.0 | 0.00 | 0.00 | 0.00 | 48 | 1012.9 |
| 20260503195801 | 71 | 359 | 3.0 | 10.0 | 0.00 | 0.00 | 0.00 | 49 | 1013.1 |
| 20260503195257 | 71 | 296 | 7.0 | 10.0 | 0.00 | 0.00 | 0.00 | 49 | 1012.7 |
| 20260503194755 | 70 | 265 | 4.0 | 10.0 | 0.00 | 0.00 | 0.00 | 52 | 1013.2 |
| 20260503194250 | 69 | 270 | 3.0 | 7.0 | 0.00 | 0.00 | 0.00 | 55 | 1013.2 |
| 20260503193747 | 69 | 276 | 5.0 | 8.0 | 0.00 | 0.00 | 0.00 | 54 | 1013.2 |
| 20260503193243 | 69 | 281 | 7.0 | 10.0 | 0.00 | 0.00 | 0.00 | 54 | 1013.3 |
| 20260503192739 | 69 | 347 | 3.0 | 8.0 | 0.00 | 0.00 | 0.00 | 56 | 1013.3 |
| 20260503192234 | 68 | 278 | 3.0 | 10.0 | 0.00 | 0.00 | 0.00 | 56 | 1013.3 |
| 20260503191731 | 69 | 270 | 6.0 | 9.0 | 0.00 | 0.00 | 0.00 | 55 | 1013.3 |
| 20260503191228 | 68 | 256 | 3.0 | 9.0 | 0.00 | 0.00 | 0.00 | 56 | 1013.5 |
| 20260503190725 | 68 | 285 | 6.0 | 8.0 | 0.00 | 0.00 | 0.00 | 55 | 1013.5 |
| 20260503190222 | 68 | 261 | 3.0 | 6.0 | 0.00 | 0.00 | 0.00 | 56 | 1013.7 |
| 20260503185719 | 66 | 230 | 5.0 | 9.0 | 0.00 | 0.00 | 0.00 | 60 | 1013.4 |
| 20260503185214 | 67 | 233 | 4.0 | 9.0 | 0.00 | 0.00 | 0.00 | 60 | 1013.6 |
| 20260503184709 | 68 | 245 | 3.0 | 6.0 | 0.00 | 0.00 | 0.00 | 59 | 1013.7 |
| 20260503184206 | 66 | 263 | 4.0 | 7.0 | 0.00 | 0.00 | 0.00 | 60 | 1013.6 |
| 20260503183702 | 66 | 217 | 5.0 | 8.0 | 0.00 | 0.00 | 0.00 | 61 | 1014.0 |
| 20260503183200 | 65 | 301 | 6.0 | 9.0 | 0.00 | 0.00 | 0.00 | 63 | 1014.0 |
| 20260503182658 | 65 | 247 | 6.0 | 9.0 | 0.00 | 0.00 | 0.00 | 64 | 1014.0 |
| 20260503182156 | 65 | 247 | 3.0 | 6.0 | 0.00 | 0.00 | 0.00 | 64 | 1014.1 |
| 20260503181652 | 65 | 238 | 5.0 | 8.0 | 0.00 | 0.00 | 0.00 | 63 | 1013.8 |
| 20260503181149 | 65 | 245 | 5.0 | 8.0 | 0.00 | 0.00 | 0.00 | 63 | 1014.1 |
| 20260503180646 | 66 | 229 | 3.0 | 6.0 | 0.00 | 0.00 | 0.00 | 62 | 1013.9 |
| 20260503180144 | 65 | 277 | 4.0 | 7.0 | 0.00 | 0.00 | 0.00 | 62 | 1014.0 |
| 20260503175641 | 65 | 258 | 6.0 | 9.0 | 0.00 | 0.00 | 0.00 | 63 | 1013.8 |
| 20260503175138 | 64 | 276 | 5.0 | 9.0 | 0.00 | 0.00 | 0.00 | 64 | 1013.8 |
| 20260503174634 | 65 | 263 | 7.0 | 9.0 | 0.00 | 0.00 | 0.00 | 63 | 1014.1 |
| 20260503174132 | 64 | 255 | 6.0 | 8.0 | 0.00 | 0.00 | 0.00 | 63 | 1014.2 |
| 20260503173627 | 64 | 230 | 6.0 | 8.0 | 0.00 | 0.00 | 0.00 | 64 | 1014.1 |
| 20260503173123 | 66 | 190 | 2.0 | 7.0 | 0.00 | 0.00 | 0.00 | 63 | 1014.2 |
| 20260503172620 | 65 | 227 | 5.0 | 9.0 | 0.00 | 0.00 | 0.00 | 62 | 1014.0 |
| 20260503172118 | 65 | 228 | 4.0 | 8.0 | 0.00 | 0.00 | 0.00 | 62 | 1014.0 |
| 20260503171614 | 64 | 245 | 4.0 | 8.0 | 0.00 | 0.00 | 0.00 | 64 | 1014.1 |
| 20260503171111 | 63 | 213 | 8.0 | 11.0 | 0.00 | 0.00 | 0.00 | 64 | 1014.4 |
| 20260503170608 | 64 | 235 | 5.0 | 8.0 | 0.00 | 0.00 | 0.00 | 64 | 1014.2 |
| 20260503170104 | 63 | 233 | 5.0 | 9.0 | 0.00 | 0.00 | 0.00 | 65 | 1014.3 |
| 20260503151000 | 62 | 314 | 3.0 | 6.0 | 0.00 | 0.00 | 0.00 | 66 | 1014.3 |
| 20260503150457 | 61 | 205 | 2.0 | 6.0 | 0.00 | 0.00 | 0.00 | 67 | 1014.3 |
| 20260503131344 | 60 | 355 | 1.0 | 6.0 | 0.00 | 0.00 | 0.00 | 60 | 1014.0 |
| 20260503130841 | 60 | 228 | 5.0 | 7.0 | 0.00 | 0.00 | 0.00 | 60 | 1013.9 |
| 20260503130339 | 60 | 298 | 2.0 | 3.0 | 0.00 | 0.00 | 0.00 | 61 | 1014.0 |
| 20260503110732 | 58 | 337 | 1.0 | 2.0 | 0.00 | 0.00 | 0.00 | 65 | 1014.3 |
| 20260503110230 | 57 | 225 | 0.0 | 1.0 | 0.00 | 0.00 | 0.00 | 69 | 1014.4 |
| 20260503100155 | 59 | 190 | 1.0 | 2.0 | 0.00 | 0.00 | 0.00 | 66 | 1014.2 |
| 20260503090115 | 63 | 22 | 1.0 | 1.0 | 0.00 | 0.00 | 0.00 | 49 | 1014.2 |
| 20260503081550 | 62 | 22 | 1.0 | 2.0 | 0.00 | 0.00 | 0.00 | 51 | 1014.3 |
| 20260503081048 | 62 | 21 | 2.0 | 2.0 | 0.00 | 0.00 | 0.00 | 52 | 1014.2 |
| 20260503080544 | 61 | 40 | 1.0 | 2.0 | 0.00 | 0.00 | 0.00 | 55 | 1014.2 |
| 20260503072518 | 64 | 352 | 0.0 | 0.0 | 0.00 | 0.00 | 0.00 | 46 | 1014.2 |
| 20260503072015 | 65 | 352 | 0.0 | 1.0 | 0.00 | 0.00 | 0.00 | 45 | 1014.3 |
| 20260503071512 | 65 | 321 | 0.0 | 1.0 | 0.00 | 0.00 | 0.00 | 45 | 1014.2 |
| 20260503071008 | 65 | 328 | 0.0 | 1.0 | 0.00 | 0.00 | 0.00 | 45 | 1014.2 |
| 20260503070505 | 66 | 288 | 1.0 | 1.0 | 0.00 | 0.00 | 0.00 | 44 | 1014.1 |
| 20260503054929 | 66 | 17 | 2.0 | 3.0 | 0.00 | 0.00 | 0.00 | 43 | 1014.0 |
| 20260503054425 | 66 | 257 | 1.0 | 3.0 | 0.00 | 0.00 | 0.00 | 44 | 1013.9 |
| 20260503053923 | 66 | 220 | 2.0 | 6.0 | 0.00 | 0.00 | 0.00 | 44 | 1013.9 |
| 20260503053420 | 66 | 329 | 1.0 | 3.0 | 0.00 | 0.00 | 0.00 | 44 | 1014.2 |
| 20260503052916 | 66 | 350 | 0.0 | 3.0 | 0.00 | 0.00 | 0.00 | 44 | 1014.0 |
| 20260503052414 | 66 | 287 | 0.0 | 7.0 | 0.00 | 0.00 | 0.00 | 45 | 1014.3 |
| 20260503051910 | 67 | 334 | 1.0 | 8.0 | 0.00 | 0.00 | 0.00 | 45 | 1014.2 |
| 20260503051406 | 66 | 35 | 0.0 | 1.0 | 0.00 | 0.00 | 0.00 | 46 | 1014.1 |
| 20260503050904 | 66 | 316 | 1.0 | 3.0 | 0.00 | 0.00 | 0.00 | 46 | 1014.1 |
| 20260503050359 | 67 | 0 | 0.0 | 7.0 | 0.00 | 0.00 | 0.00 | 44 | 1014.1 |
| 20260503045857 | 67 | 309 | 2.0 | 5.0 | 0.00 | 0.00 | 0.00 | 44 | 1014.2 |
| 20260503045354 | 67 | 272 | 2.0 | 5.0 | 0.00 | 0.00 | 0.00 | 44 | 1014.0 |
| 20260503044851 | 68 | 353 | 1.0 | 7.0 | 0.00 | 0.00 | 0.00 | 45 | 1013.9 |
| 20260503044348 | 67 | 316 | 1.0 | 9.0 | 0.00 | 0.00 | 0.00 | 44 | 1013.9 |
| 20260503043845 | 68 | 3 | 1.0 | 3.0 | 0.00 | 0.00 | 0.00 | 44 | 1014.1 |
| 20260503043342 | 68 | 337 | 4.0 | 8.0 | 0.00 | 0.00 | 0.00 | 43 | 1013.8 |
| 20260503042838 | 68 | 331 | 2.0 | 7.0 | 0.00 | 0.00 | 0.00 | 43 | 1014.0 |
| 20260503042335 | 68 | 267 | 2.0 | 6.0 | 0.00 | 0.00 | 0.00 | 45 | 1013.9 |
| 20260503041831 | 67 | 289 | 3.0 | 6.0 | 0.00 | 0.00 | 0.00 | 45 | 1013.8 |
| 20260503041328 | 67 | 293 | 5.0 | 7.0 | 0.00 | 0.00 | 0.00 | 45 | 1013.6 |
| 20260503040826 | 67 | 314 | 6.0 | 7.0 | 0.00 | 0.00 | 0.00 | 45 | 1013.5 |
| 20260503040324 | 67 | 256 | 5.0 | 7.0 | 0.00 | 0.00 | 0.00 | 46 | 1013.3 |
| 20260503035820 | 67 | 344 | 4.0 | 7.0 | 0.00 | 0.00 | 0.00 | 47 | 1013.5 |
| 20260503035317 | 66 | 356 | 2.0 | 8.0 | 0.00 | 0.00 | 0.00 | 48 | 1013.4 |
| 20260503034814 | 66 | 265 | 4.0 | 10.0 | 0.00 | 0.00 | 0.00 | 48 | 1013.3 |
| 20260503034312 | 66 | 269 | 3.0 | 6.0 | 0.00 | 0.00 | 0.00 | 49 | 1013.4 |
| 20260503033809 | 66 | 309 | 2.0 | 5.0 | 0.00 | 0.00 | 0.00 | 50 | 1013.2 |
| 20260503033306 | 66 | 16 | 3.0 | 5.0 | 0.00 | 0.00 | 0.00 | 51 | 1013.0 |
| 20260503032804 | 65 | 275 | 2.0 | 6.0 | 0.00 | 0.00 | 0.00 | 52 | 1013.1 |
| 20260503032304 | 66 | 266 | 1.0 | 5.0 | 0.00 | 0.00 | 0.00 | 53 | 1013.0 |
| 20260503031759 | 65 | 218 | 2.0 | 2.0 | 0.00 | 0.00 | 0.00 | 55 | 1013.1 |
| 20260503031258 | 66 | 233 | 3.0 | 5.0 | 0.00 | 0.00 | 0.00 | 54 | 1013.2 |
| 20260503030753 | 66 | 289 | 4.0 | 5.0 | 0.00 | 0.00 | 0.00 | 53 | 1013.1 |
| 20260503030250 | 67 | 248 | 1.0 | 6.0 | 0.00 | 0.00 | 0.00 | 52 | 1012.9 |
| 20260503025747 | 67 | 280 | 5.0 | 7.0 | 0.00 | 0.00 | 0.00 | 52 | 1012.9 |
| 20260503025244 | 67 | 260 | 3.0 | 5.0 | 0.00 | 0.00 | 0.00 | 51 | 1012.7 |
| 20260503024741 | 67 | 272 | 4.0 | 8.0 | 0.00 | 0.00 | 0.00 | 51 | 1012.9 |
| 20260503024238 | 67 | 236 | 2.0 | 3.0 | 0.00 | 0.00 | 0.00 | 52 | 1012.9 |
| 20260503023735 | 68 | 257 | 4.0 | 8.0 | 0.00 | 0.00 | 0.00 | 52 | 1013.1 |
| 20260503023232 | 68 | 257 | 6.0 | 7.0 | 0.00 | 0.00 | 0.00 | 52 | 1013.0 |
| 20260503022728 | 68 | 253 | 5.0 | 6.0 | 0.00 | 0.00 | 0.00 | 52 | 1012.7 |
| 20260503022228 | 68 | 271 | 4.0 | 6.0 | 0.00 | 0.00 | 0.00 | 52 | 1012.9 |
| 20260503021725 | 68 | 285 | 3.0 | 7.0 | 0.00 | 0.00 | 0.00 | 53 | 1012.9 |
| 20260503021221 | 67 | 226 | 4.0 | 9.0 | 0.00 | 0.00 | 0.00 | 54 | 1013.0 |
| 20260503020719 | 68 | 292 | 5.0 | 9.0 | 0.00 | 0.00 | 0.00 | 54 | 1012.9 |
| 20260503020216 | 68 | 234 | 4.0 | 10.0 | 0.00 | 0.00 | 0.00 | 54 | 1012.8 |
| 20260503015713 | 68 | 253 | 5.0 | 7.0 | 0.00 | 0.00 | 0.00 | 53 | 1013.1 |
| 20260503015210 | 68 | 286 | 4.0 | 10.0 | 0.00 | 0.00 | 0.00 | 53 | 1012.9 |
| 20260503014705 | 69 | 259 | 2.0 | 8.0 | 0.00 | 0.00 | 0.00 | 53 | 1013.1 |
| 20260503014204 | 69 | 359 | 5.0 | 8.0 | 0.00 | 0.00 | 0.00 | 52 | 1013.2 |
| 20260503013701 | 69 | 235 | 3.0 | 6.0 | 0.00 | 0.00 | 0.00 | 52 | 1012.7 |
| 20260503013158 | 69 | 226 | 1.0 | 8.0 | 0.00 | 0.00 | 0.00 | 52 | 1013.1 |
| 20260503012655 | 69 | 214 | 4.0 | 8.0 | 0.00 | 0.00 | 0.00 | 52 | 1013.1 |
| 20260503012152 | 69 | 303 | 7.0 | 9.0 | 0.00 | 0.00 | 0.00 | 51 | 1013.3 |
| 20260503011648 | 69 | 266 | 3.0 | 8.0 | 0.00 | 0.00 | 0.00 | 51 | 1013.1 |
| 20260503011146 | 69 | 306 | 3.0 | 7.0 | 0.00 | 0.00 | 0.00 | 50 | 1013.0 |
| 20260503010642 | 69 | 228 | 4.0 | 8.0 | 0.00 | 0.00 | 0.00 | 50 | 1013.1 |
| 20260503010139 | 69 | 283 | 5.0 | 10.0 | 0.00 | 0.00 | 0.00 | 50 | 1013.3 |
| 20260503005636 | 69 | 292 | 6.0 | 10.0 | 0.00 | 0.00 | 0.00 | 49 | 1013.1 |
| 20260503005133 | 69 | 231 | 4.0 | 8.0 | 0.00 | 0.00 | 0.00 | 48 | 1013.3 |
| 20260503004630 | 69 | 244 | 5.0 | 9.0 | 0.00 | 0.00 | 0.00 | 48 | 1013.2 |
| 20260503004128 | 69 | 258 | 4.0 | 9.0 | 0.00 | 0.00 | 0.00 | 48 | 1013.2 |
| 20260503003625 | 69 | 294 | 7.0 | 10.0 | 0.00 | 0.00 | 0.00 | 50 | 1013.4 |
| 20260503003122 | 68 | 226 | 6.0 | 13.0 | 0.00 | 0.00 | 0.00 | 50 | 1013.2 |
| 20260503002619 | 68 | 272 | 6.0 | 8.0 | 0.00 | 0.00 | 0.00 | 51 | 1013.2 |
| 20260503002115 | 68 | 267 | 5.0 | 11.0 | 0.00 | 0.00 | 0.00 | 51 | 1013.3 |
| 20260503001611 | 68 | 284 | 4.0 | 8.0 | 0.00 | 0.00 | 0.00 | 52 | 1013.3 |
| 20260503001109 | 68 | 289 | 9.0 | 11.0 | 0.00 | 0.00 | 0.00 | 52 | 1013.6 |
| 20260503000606 | 68 | 236 | 4.0 | 10.0 | 0.00 | 0.00 | 0.00 | 53 | 1013.4 |
| 20260503000103 | 68 | 243 | 6.0 | 9.0 | 0.00 | 0.00 | 0.00 | 54 | 1013.4 |
| 20260502235600 | 68 | 253 | 10.0 | 14.0 | 0.00 | 0.00 | 0.00 | 54 | 1013.7 |
| 20260502235058 | 68 | 306 | 4.0 | 10.0 | 0.00 | 0.00 | 0.00 | 55 | 1013.6 |
| 20260502234553 | 67 | 244 | 5.0 | 11.0 | 0.00 | 0.00 | 0.00 | 57 | 1013.6 |
| 20260502234052 | 67 | 196 | 4.0 | 6.0 | 0.00 | 0.00 | 0.00 | 57 | 1013.9 |
| 20260502233551 | 67 | 281 | 6.0 | 11.0 | 0.00 | 0.00 | 0.00 | 59 | 1013.8 |
| 20260502233049 | 68 | 351 | 3.0 | 8.0 | 0.00 | 0.00 | 0.00 | 57 | 1013.9 |